createdAt,value
2023-02-28T00:06:15.606Z,0.49
2023-02-28T00:16:15.943Z,0.39
2023-02-28T00:26:20.024Z,0.30
2023-02-28T00:36:20.614Z,0.26
2023-02-28T00:46:20.652Z,0.30
2023-02-28T00:56:21.661Z,0.33
2023-02-28T01:06:21.670Z,0.36
2023-02-28T01:16:21.651Z,0.39
2023-02-28T01:26:21.680Z,0.31
2023-02-28T01:36:21.785Z,0.22
2023-02-28T01:46:21.781Z,0.14
2023-02-28T01:56:23.064Z,-0.01
2023-02-28T02:06:24.084Z,-0.22
2023-02-28T02:16:24.787Z,-0.48
2023-02-28T02:26:24.741Z,-0.74
2023-02-28T02:36:25.927Z,-0.97
2023-02-28T02:46:25.813Z,-1.16
2023-02-28T02:56:25.933Z,-1.29
2023-02-28T03:06:25.906Z,-1.39
2023-02-28T03:16:25.981Z,-1.44
2023-02-28T03:26:25.912Z,-1.48
2023-02-28T03:36:28.880Z,-1.52
2023-02-28T03:46:28.805Z,-1.55
2023-02-28T03:56:31.984Z,-1.48
2023-02-28T04:06:31.809Z,-1.34
2023-02-28T04:16:35.287Z,-1.21
2023-02-28T04:26:33.898Z,-1.09
2023-02-28T04:36:33.848Z,-0.97
2023-02-28T04:46:34.019Z,-0.88
2023-02-28T04:56:34.032Z,-0.75
2023-02-28T05:06:33.942Z,-0.56
2023-02-28T05:16:34.025Z,-0.41
2023-02-28T05:26:34.022Z,-0.30
2023-02-28T05:36:33.972Z,-0.22
2023-02-28T05:46:34.037Z,-0.17
2023-02-28T05:56:35.061Z,-0.16
2023-02-28T06:06:36.940Z,-0.19
2023-02-28T06:16:37.082Z,-0.21
2023-02-28T06:26:37.012Z,-0.23
2023-02-28T06:36:37.040Z,-0.24
2023-02-28T06:46:37.093Z,-0.22
2023-02-28T06:56:37.127Z,-0.11
2023-02-28T07:06:37.042Z,0.06
2023-02-28T07:16:37.002Z,0.29
2023-02-28T07:26:37.124Z,0.56
2023-02-28T07:36:37.038Z,0.86
2023-02-28T07:46:37.596Z,1.17
2023-02-28T07:56:38.116Z,1.50
2023-02-28T08:06:38.083Z,1.83
2023-02-28T08:16:39.425Z,2.12
2023-02-28T08:26:39.142Z,2.38
2023-02-28T08:36:39.375Z,2.66
2023-02-28T08:46:39.185Z,3.06
2023-02-28T08:56:39.220Z,4.18
2023-02-28T09:06:39.263Z,6.17
2023-02-28T09:16:40.189Z,7.97
2023-02-28T09:26:43.062Z,8.62
2023-02-28T09:36:45.584Z,8.33
2023-02-28T09:46:44.283Z,8.26
2023-02-28T09:56:44.340Z,8.20
2023-02-28T10:06:44.265Z,8.14
2023-02-28T10:16:46.286Z,7.92
2023-02-28T10:26:46.303Z,7.60
2023-02-28T10:36:46.329Z,7.16
2023-02-28T10:46:46.332Z,6.73
2023-02-28T10:56:46.348Z,6.44
2023-02-28T11:06:46.312Z,6.20
2023-02-28T11:16:46.321Z,6.31
2023-02-28T11:26:46.362Z,6.56
2023-02-28T11:36:46.327Z,6.60
2023-02-28T11:46:46.638Z,6.52
2023-02-28T11:56:47.408Z,6.53
2023-02-28T12:06:47.422Z,6.54
2023-02-28T12:16:47.348Z,6.71
2023-02-28T12:26:47.414Z,7.08
2023-02-28T12:36:47.582Z,7.26
2023-02-28T12:46:49.401Z,7.05
2023-02-28T12:56:49.779Z,6.81
2023-02-28T13:06:50.112Z,6.67
2023-02-28T13:16:50.641Z,6.59
2023-02-28T13:26:50.660Z,6.59
2023-02-28T13:36:50.453Z,6.62
2023-02-28T13:46:50.632Z,6.69
2023-02-28T13:56:50.614Z,6.79
2023-02-28T14:06:50.685Z,6.86
2023-02-28T14:16:50.601Z,6.91
2023-02-28T14:26:50.552Z,6.96
2023-02-28T14:36:50.658Z,7.00
2023-02-28T14:46:50.663Z,7.03
2023-02-28T14:56:50.698Z,7.03
2023-02-28T15:06:50.741Z,7.00
2023-02-28T15:16:50.632Z,6.97
2023-02-28T15:26:50.722Z,6.94
2023-02-28T15:36:50.682Z,6.91
2023-02-28T15:47:03.327Z,6.86
2023-02-28T15:57:03.593Z,6.78
2023-02-28T16:07:03.633Z,6.67
2023-02-28T16:17:03.693Z,6.52
2023-02-28T16:27:03.683Z,6.36
2023-02-28T16:37:03.751Z,6.17
2023-02-28T16:47:05.254Z,5.95
2023-02-28T16:57:05.656Z,5.71
2023-02-28T17:07:05.813Z,5.44
2023-02-28T17:17:05.827Z,5.16
2023-02-28T17:27:06.322Z,4.91
2023-02-28T17:37:06.827Z,4.69
2023-02-28T17:47:06.872Z,4.50
2023-02-28T17:57:06.812Z,4.32
2023-02-28T18:07:06.817Z,4.15
2023-02-28T18:17:06.858Z,4.01
2023-02-28T18:27:07.067Z,3.88
2023-02-28T18:37:06.866Z,3.75
2023-02-28T18:47:06.865Z,3.62
2023-02-28T18:57:06.792Z,3.49
2023-02-28T19:07:06.864Z,3.35
2023-02-28T19:17:07.022Z,3.19
2023-02-28T19:27:06.848Z,2.98
2023-02-28T19:37:09.976Z,2.71
2023-02-28T19:47:10.026Z,2.41
2023-02-28T19:57:09.890Z,2.10
2023-02-28T20:07:09.957Z,1.81
2023-02-28T20:17:10.047Z,1.56
2023-02-28T20:27:09.973Z,1.36
2023-02-28T20:37:09.973Z,1.20
2023-02-28T20:47:10.082Z,1.05
2023-02-28T20:57:09.994Z,0.89
2023-02-28T21:07:09.976Z,0.74
2023-02-28T21:17:10.107Z,0.60
2023-02-28T21:27:10.071Z,0.47
2023-02-28T21:37:09.977Z,0.37
2023-02-28T21:47:10.135Z,0.32
2023-02-28T21:57:13.865Z,0.27
2023-02-28T22:07:14.290Z,0.20
2023-02-28T22:17:14.118Z,0.11
2023-02-28T22:27:14.118Z,0.02
2023-02-28T22:37:14.054Z,-0.09
2023-02-28T22:47:14.192Z,-0.19
2023-02-28T22:57:14.117Z,-0.30
2023-02-28T23:07:14.100Z,-0.42
2023-02-28T23:17:14.109Z,-0.54
2023-02-28T23:27:14.139Z,-0.64
2023-02-28T23:37:14.310Z,-0.75
2023-02-28T23:47:14.234Z,-0.83
2023-02-28T23:57:14.157Z,-0.93
